createdAt,value
2022-08-19T04:00:31.402Z,994.37
2022-08-19T04:05:31.317Z,994.35
2022-08-19T04:10:31.300Z,994.42
2022-08-19T04:15:38.265Z,994.41
2022-08-19T04:20:31.158Z,994.39
2022-08-19T04:25:31.114Z,994.52
2022-08-19T04:30:31.069Z,994.53
2022-08-19T04:35:30.996Z,994.53
2022-08-19T04:40:30.955Z,994.51
2022-08-19T04:45:36.274Z,994.64
2022-08-19T04:50:31.855Z,994.63
2022-08-19T04:55:31.470Z,994.63
2022-08-19T05:00:30.744Z,994.80
2022-08-19T05:05:30.697Z,994.83
2022-08-19T05:10:31.643Z,994.93
2022-08-19T05:15:30.564Z,994.89
2022-08-19T05:20:30.527Z,994.91
2022-08-19T05:25:30.486Z,994.90
2022-08-19T05:30:46.372Z,994.94
2022-08-19T05:35:34.795Z,995.03
2022-08-19T05:40:30.302Z,995.05
2022-08-19T05:45:30.257Z,995.07
2022-08-19T05:50:30.218Z,995.09
2022-08-19T05:55:30.135Z,995.05
2022-08-19T06:00:30.099Z,995.12
2022-08-19T06:05:30.043Z,995.15
2022-08-19T06:10:29.990Z,995.11
2022-08-19T06:15:29.917Z,995.21
2022-08-19T06:20:54.446Z,995.14
2022-08-19T06:25:30.827Z,995.02
2022-08-19T06:30:29.756Z,995.06
2022-08-19T06:35:29.710Z,995.12
2022-08-19T06:40:29.676Z,995.12
2022-08-19T06:45:34.553Z,995.01
2022-08-19T06:50:30.559Z,995.04
2022-08-19T06:55:29.502Z,995.17
2022-08-19T07:05:29.383Z,995.11
2022-08-19T07:10:29.345Z,995.19
2022-08-19T07:15:29.285Z,995.17
2022-08-19T07:20:29.597Z,995.36
2022-08-19T07:25:32.280Z,995.44
2022-08-19T07:30:29.127Z,995.44
2022-08-19T07:35:29.066Z,995.53
2022-08-19T07:40:29.018Z,995.61
2022-08-19T07:45:28.977Z,995.60
2022-08-19T07:50:28.902Z,995.67
2022-08-19T07:55:41.080Z,995.77
2022-08-19T08:00:29.802Z,995.82
2022-08-19T08:05:28.739Z,995.86
2022-08-19T08:10:28.809Z,995.83
2022-08-19T08:15:28.652Z,995.91
2022-08-19T08:20:28.577Z,996.03
2022-08-19T08:25:28.535Z,995.98
2022-08-19T08:30:31.077Z,996.02
2022-08-19T08:35:28.415Z,996.02
2022-08-19T08:40:28.379Z,996.02
2022-08-19T08:45:28.338Z,996.03
2022-08-19T08:50:28.263Z,996.01
2022-08-19T08:55:28.228Z,995.93
2022-08-19T09:00:29.168Z,995.93
2022-08-19T09:05:28.096Z,995.78
2022-08-19T09:10:29.058Z,995.99
2022-08-19T09:15:33.333Z,995.88
2022-08-19T09:20:28.963Z,995.92
2022-08-19T09:25:29.557Z,995.74
2022-08-19T09:30:27.848Z,995.78
2022-08-19T09:35:28.300Z,995.77
2022-08-19T09:40:27.790Z,995.81
2022-08-19T09:45:27.697Z,995.77
2022-08-19T09:50:27.639Z,995.78
2022-08-19T09:55:31.622Z,995.75
2022-08-19T10:00:28.540Z,995.75
2022-08-19T10:05:27.489Z,995.75
2022-08-19T10:10:27.447Z,995.77
2022-08-19T10:15:29.178Z,995.78
2022-08-19T10:20:34.650Z,995.71
2022-08-19T10:25:27.282Z,995.59
2022-08-19T10:30:27.240Z,995.69
2022-08-19T10:35:27.161Z,995.67
2022-08-19T10:40:27.229Z,995.71
2022-08-19T10:45:28.130Z,995.67
2022-08-19T10:50:28.441Z,995.66
2022-08-19T10:55:29.269Z,995.61
2022-08-19T11:00:26.926Z,995.67
2022-08-19T11:05:26.853Z,995.59
2022-08-19T11:10:26.805Z,995.54
2022-08-19T11:15:26.765Z,995.44
2022-08-19T11:20:26.688Z,995.52
2022-08-19T11:25:26.654Z,995.52
2022-08-19T11:30:26.610Z,995.48
2022-08-19T11:35:26.535Z,995.45
2022-08-19T11:40:26.494Z,995.27
2022-08-19T11:45:26.441Z,995.35
2022-08-19T11:50:26.378Z,995.32
2022-08-19T11:55:26.340Z,995.33
2022-08-19T12:00:26.286Z,995.28
2022-08-19T12:05:26.219Z,995.34
2022-08-19T12:10:26.617Z,995.26
2022-08-19T12:15:26.131Z,995.25
2022-08-19T12:20:26.065Z,995.23
2022-08-19T12:25:26.028Z,995.29
2022-08-19T12:30:25.986Z,995.29
2022-08-19T12:35:25.915Z,995.23
2022-08-19T12:40:26.653Z,995.06
2022-08-19T12:45:25.821Z,995.12
2022-08-19T12:50:25.753Z,995.13
2022-08-19T12:55:25.715Z,995.08
2022-08-19T13:00:25.680Z,995.08
2022-08-19T13:05:25.599Z,995.07
2022-08-19T13:10:25.573Z,994.96
2022-08-19T13:15:25.513Z,994.90
2022-08-19T13:20:25.435Z,994.73
2022-08-19T13:25:25.397Z,994.80
2022-08-19T13:30:25.363Z,994.74
2022-08-19T13:35:25.284Z,994.84
2022-08-19T13:40:25.247Z,994.76
2022-08-19T13:45:25.269Z,994.64
2022-08-19T13:50:25.131Z,994.64
2022-08-19T13:55:25.380Z,994.56
2022-08-19T14:00:25.053Z,994.57
2022-08-19T14:05:25.024Z,994.44
2022-08-19T14:10:24.924Z,994.54
2022-08-19T14:15:25.089Z,994.45
2022-08-19T14:20:26.072Z,994.41
2022-08-19T14:25:24.767Z,994.41
2022-08-19T14:30:24.730Z,994.57
2022-08-19T14:35:24.679Z,994.64
2022-08-19T14:40:24.613Z,994.55
2022-08-19T14:45:24.597Z,994.64
2022-08-19T14:50:24.531Z,994.70
2022-08-19T14:55:24.453Z,994.69
2022-08-19T15:00:24.417Z,994.75
2022-08-19T15:05:24.369Z,994.78
2022-08-19T15:10:24.302Z,994.70
2022-08-19T15:15:24.255Z,994.71
2022-08-19T15:20:24.210Z,994.68
2022-08-19T15:25:24.162Z,994.72
2022-08-19T15:30:24.097Z,994.74
2022-08-19T15:35:24.184Z,994.87
2022-08-19T15:40:23.979Z,994.95
2022-08-19T15:45:23.936Z,995.00
2022-08-19T15:50:23.895Z,994.94
2022-08-19T15:55:32.532Z,995.02
2022-08-19T16:00:24.786Z,994.98
2022-08-19T16:05:23.723Z,994.95
2022-08-19T16:10:26.258Z,995.00
2022-08-19T16:15:23.608Z,995.04
2022-08-19T16:20:24.228Z,995.02
2022-08-19T16:25:30.545Z,995.12
2022-08-19T16:30:23.457Z,995.10
2022-08-19T16:35:23.405Z,995.25
2022-08-19T16:40:23.456Z,995.26
2022-08-19T16:45:23.287Z,995.24
2022-08-19T16:50:45.899Z,995.25
2022-08-19T16:55:24.188Z,995.18
2022-08-19T17:00:23.146Z,995.26
2022-08-19T17:05:23.081Z,995.20
2022-08-19T17:10:23.025Z,995.23
2022-08-19T17:15:22.980Z,995.20
2022-08-19T17:20:22.926Z,995.23
2022-08-19T17:25:22.874Z,995.16
2022-08-19T17:30:22.822Z,995.24
2022-08-19T17:35:24.331Z,995.22
2022-08-19T17:40:23.951Z,995.18
2022-08-19T17:45:22.668Z,995.10
2022-08-19T17:50:22.594Z,995.10
2022-08-19T17:55:22.556Z,995.11
2022-08-19T18:00:22.500Z,995.15
2022-08-19T18:05:22.447Z,995.11
2022-08-19T18:10:22.394Z,995.19
2022-08-19T18:15:22.339Z,995.18
2022-08-19T18:20:22.285Z,995.22
2022-08-19T18:25:22.230Z,995.22
2022-08-19T18:30:22.178Z,995.22
2022-08-19T18:35:22.139Z,995.27
2022-08-19T18:40:22.120Z,995.24
2022-08-19T18:45:22.018Z,995.18
2022-08-19T18:50:21.966Z,995.17
2022-08-19T18:55:21.913Z,995.30
2022-08-19T19:00:21.853Z,995.35
2022-08-19T19:05:21.798Z,995.41
2022-08-19T19:10:21.760Z,995.49
2022-08-19T19:15:21.682Z,995.64
2022-08-19T19:20:21.643Z,995.68
2022-08-19T19:25:21.591Z,995.75
2022-08-19T19:30:21.538Z,995.81
2022-08-19T19:35:21.478Z,995.80
2022-08-19T19:40:21.457Z,995.83
2022-08-19T19:45:21.373Z,995.92
2022-08-19T19:50:21.335Z,995.83
2022-08-19T19:55:21.255Z,995.85
2022-08-19T20:00:21.219Z,996.00
2022-08-19T20:05:21.516Z,995.99
2022-08-19T20:10:21.111Z,996.06
2022-08-19T20:15:21.051Z,996.12
2022-08-19T20:20:20.998Z,996.06
2022-08-19T20:25:22.073Z,996.15
2022-08-19T20:30:20.905Z,996.17
2022-08-19T20:35:20.829Z,996.28
2022-08-19T20:40:21.913Z,996.28
2022-08-19T20:45:32.762Z,996.31
2022-08-19T20:50:21.676Z,996.34
2022-08-19T20:55:20.623Z,996.40
2022-08-19T21:00:20.660Z,996.40
2022-08-19T21:05:20.519Z,996.43
2022-08-19T21:10:20.447Z,996.46
2022-08-19T21:15:20.406Z,996.50
2022-08-19T21:20:20.354Z,996.50
2022-08-19T21:25:20.297Z,996.47
2022-08-19T21:30:20.242Z,996.53
2022-08-19T21:35:20.198Z,996.54
2022-08-19T21:40:20.146Z,996.51
2022-08-19T21:45:20.070Z,996.47
2022-08-19T21:50:20.031Z,996.48
2022-08-19T21:55:19.975Z,996.43
2022-08-19T22:00:19.924Z,996.50
2022-08-19T22:05:19.873Z,996.53
2022-08-19T22:10:19.814Z,996.54
2022-08-19T22:15:19.757Z,996.54
2022-08-19T22:20:19.710Z,996.62
2022-08-19T22:25:31.651Z,996.52
2022-08-19T22:30:20.610Z,996.51
2022-08-19T22:35:19.531Z,996.52
2022-08-19T22:40:19.492Z,996.58
2022-08-19T22:45:19.433Z,996.63
2022-08-19T22:50:19.382Z,996.66
2022-08-19T22:55:19.325Z,996.67
2022-08-19T23:00:19.274Z,996.60
2022-08-19T23:05:21.987Z,996.53
2022-08-19T23:10:26.690Z,996.60
2022-08-19T23:15:20.230Z,996.53
2022-08-19T23:20:19.055Z,996.52
2022-08-19T23:25:19.006Z,996.55
